createdAt,value
2023-12-21T00:02:05.186Z,9.64
2023-12-21T00:04:33.958Z,9.64
2023-12-21T00:07:02.553Z,9.67
2023-12-21T00:09:30.717Z,9.69
2023-12-21T00:11:59.144Z,9.65
2023-12-21T00:14:28.646Z,9.61
2023-12-21T00:16:56.775Z,9.53
2023-12-21T00:19:25.309Z,9.49
2023-12-21T00:21:53.661Z,9.45
2023-12-21T00:24:21.842Z,9.39
2023-12-21T00:26:50.262Z,9.29
2023-12-21T00:29:18.136Z,9.27
2023-12-21T00:31:46.657Z,9.19
2023-12-21T00:34:18.039Z,9.02
2023-12-21T00:36:48.724Z,8.89
2023-12-21T00:39:17.025Z,8.78
2023-12-21T00:41:45.291Z,8.64
2023-12-21T00:44:13.334Z,8.48
2023-12-21T00:46:41.836Z,8.40
2023-12-21T00:49:10.431Z,8.31
2023-12-21T00:51:38.849Z,8.24
2023-12-21T00:54:06.982Z,8.15
2023-12-21T00:56:35.221Z,8.12
2023-12-21T00:59:05.775Z,8.13
2023-12-21T01:01:34.439Z,8.13
2023-12-21T01:04:03.004Z,8.06
2023-12-21T01:06:32.081Z,8.04
2023-12-21T01:09:00.894Z,8.02
2023-12-21T01:11:29.834Z,8.03
2023-12-21T01:13:58.239Z,8.05
2023-12-21T01:16:26.680Z,8.09
2023-12-21T01:19:00.776Z,8.14
2023-12-21T01:21:29.139Z,8.19
2023-12-21T01:23:57.513Z,8.21
2023-12-21T01:26:27.944Z,8.37
2023-12-21T01:28:56.068Z,8.45
2023-12-21T01:31:26.808Z,8.42
2023-12-21T01:33:55.043Z,8.41
2023-12-21T01:36:23.573Z,8.42
2023-12-21T01:38:51.563Z,8.36
2023-12-21T01:41:19.316Z,8.38
2023-12-21T01:43:47.755Z,8.33
2023-12-21T01:46:15.775Z,8.35
2023-12-21T01:48:44.592Z,8.33
2023-12-21T01:51:13.270Z,8.33
2023-12-21T01:53:42.009Z,8.26
2023-12-21T01:56:10.658Z,8.25
2023-12-21T01:58:40.089Z,8.29
2023-12-21T02:01:08.969Z,8.28
2023-12-21T02:03:37.361Z,8.24
2023-12-21T02:06:05.923Z,8.24
2023-12-21T02:08:34.140Z,8.17
2023-12-21T02:11:08.010Z,8.06
2023-12-21T02:13:36.078Z,7.95
2023-12-21T02:16:13.105Z,7.83
2023-12-21T02:18:41.907Z,7.80
2023-12-21T02:21:11.809Z,7.78
2023-12-21T02:23:41.921Z,7.78
2023-12-21T02:26:10.860Z,7.81
2023-12-21T02:28:41.258Z,7.86
2023-12-21T02:31:09.713Z,7.92
2023-12-21T02:33:39.662Z,7.91
2023-12-21T02:36:10.967Z,7.87
2023-12-21T02:38:41.360Z,7.84
2023-12-21T02:41:09.309Z,7.77
2023-12-21T02:43:37.683Z,7.80
2023-12-21T02:46:05.783Z,7.84
2023-12-21T02:48:34.134Z,7.87
2023-12-21T02:51:02.286Z,7.96
2023-12-21T02:53:30.089Z,7.99
2023-12-21T02:55:58.621Z,8.04
2023-12-21T02:58:26.970Z,8.05
2023-12-21T03:00:55.092Z,8.08
2023-12-21T03:03:23.283Z,8.08
2023-12-21T03:05:51.474Z,8.12
2023-12-21T03:08:19.891Z,8.14
2023-12-21T03:10:47.831Z,8.15
2023-12-21T03:13:15.752Z,8.18
2023-12-21T03:15:43.907Z,8.21
2023-12-21T03:18:12.815Z,8.24
2023-12-21T03:20:41.319Z,8.25
2023-12-21T03:23:09.922Z,8.19
2023-12-21T03:25:38.355Z,8.24
2023-12-21T03:28:07.963Z,8.25
2023-12-21T03:30:36.427Z,8.30
2023-12-21T03:33:04.361Z,8.29
2023-12-21T03:35:33.132Z,8.30
2023-12-21T03:38:01.436Z,8.30
2023-12-21T03:40:30.295Z,8.34
2023-12-21T03:42:58.914Z,8.30
2023-12-21T03:45:27.095Z,8.34
2023-12-21T03:47:55.160Z,8.32
2023-12-21T03:50:23.088Z,8.34
2023-12-21T03:52:51.672Z,8.37
2023-12-21T03:55:19.825Z,8.32
2023-12-21T03:57:47.989Z,8.31
2023-12-21T04:00:21.018Z,8.31
2023-12-21T04:02:49.230Z,8.31
2023-12-21T04:05:17.382Z,8.34
2023-12-21T04:07:45.880Z,8.33
2023-12-21T04:10:14.374Z,8.33
2023-12-21T04:12:42.504Z,8.33
2023-12-21T04:15:13.026Z,8.35
2023-12-21T04:17:41.386Z,8.39
2023-12-21T04:20:11.814Z,8.37
2023-12-21T04:22:40.126Z,8.38
2023-12-21T04:25:08.703Z,8.41
2023-12-21T04:27:36.731Z,8.43
2023-12-21T04:30:05.161Z,8.41
2023-12-21T04:32:33.406Z,8.44
2023-12-21T04:35:01.722Z,8.42
2023-12-21T04:37:30.127Z,8.45
2023-12-21T04:39:58.330Z,8.47
2023-12-21T04:42:25.871Z,8.49
2023-12-21T04:44:54.002Z,8.49
2023-12-21T04:47:24.112Z,8.49
2023-12-21T04:49:53.253Z,8.49
2023-12-21T04:52:21.354Z,8.45
2023-12-21T04:54:49.751Z,8.48
2023-12-21T04:57:20.377Z,8.46
2023-12-21T04:59:50.281Z,8.44
2023-12-21T05:02:19.009Z,8.44
2023-12-21T05:04:47.376Z,8.47
2023-12-21T05:07:15.772Z,8.48
2023-12-21T05:09:44.142Z,8.44
2023-12-21T05:12:12.358Z,8.48
2023-12-21T05:14:40.444Z,8.46
2023-12-21T05:17:09.711Z,8.50
2023-12-21T05:19:39.408Z,8.52
2023-12-21T05:22:07.562Z,8.56
2023-12-21T05:24:41.600Z,8.56
2023-12-21T05:27:09.845Z,8.55
2023-12-21T05:29:37.892Z,8.56
2023-12-21T05:32:06.337Z,8.49
2023-12-21T05:34:34.955Z,8.47
2023-12-21T05:37:03.203Z,8.47
2023-12-21T05:39:37.049Z,8.50
2023-12-21T05:42:05.543Z,8.52
2023-12-21T05:44:33.138Z,8.51
2023-12-21T05:47:01.150Z,8.56
2023-12-21T05:49:29.368Z,8.54
2023-12-21T05:52:01.130Z,8.55
2023-12-21T05:54:31.884Z,8.54
2023-12-21T05:57:00.795Z,8.56
2023-12-21T05:59:29.094Z,8.57
2023-12-21T06:01:57.514Z,8.62
2023-12-21T06:04:26.070Z,8.61
2023-12-21T06:06:54.706Z,8.61
2023-12-21T06:09:23.313Z,8.61
2023-12-21T06:11:51.531Z,8.65
2023-12-21T06:14:19.523Z,8.65
2023-12-21T06:16:47.914Z,8.73
2023-12-21T06:19:17.370Z,8.80
2023-12-21T06:21:45.363Z,8.81
2023-12-21T06:24:16.478Z,8.82
2023-12-21T06:26:45.081Z,8.82
2023-12-21T06:29:13.408Z,8.80
2023-12-21T06:31:41.516Z,8.81
2023-12-21T06:34:09.247Z,8.80
2023-12-21T06:36:37.367Z,8.79
2023-12-21T06:39:05.332Z,8.78
2023-12-21T06:41:33.580Z,8.74
2023-12-21T06:44:01.827Z,8.76
2023-12-21T06:46:30.231Z,8.90
2023-12-21T06:48:58.562Z,8.98
2023-12-21T06:51:26.608Z,9.02
2023-12-21T06:53:55.473Z,9.02
2023-12-21T06:56:32.840Z,9.05
2023-12-21T06:59:03.786Z,9.00
2023-12-21T07:01:34.351Z,8.98
2023-12-21T07:04:03.848Z,9.07
2023-12-21T07:06:31.941Z,9.16
2023-12-21T07:09:00.485Z,9.28
2023-12-21T07:11:28.485Z,9.40
2023-12-21T07:14:02.327Z,9.50
2023-12-21T07:16:30.218Z,9.63
2023-12-21T07:18:59.530Z,9.85
2023-12-21T07:21:27.505Z,10.12
2023-12-21T07:23:55.683Z,10.29
2023-12-21T07:26:23.635Z,10.41
2023-12-21T07:28:52.393Z,10.50
2023-12-21T07:31:20.212Z,10.59
2023-12-21T07:33:48.567Z,10.62
2023-12-21T07:36:16.669Z,10.56
2023-12-21T07:38:45.029Z,10.65
2023-12-21T07:41:14.008Z,10.70
2023-12-21T07:43:43.097Z,10.78
2023-12-21T07:46:11.232Z,10.85
2023-12-21T07:48:39.451Z,10.79
2023-12-21T07:51:10.326Z,10.78
2023-12-21T07:53:38.596Z,10.81
2023-12-21T07:56:07.283Z,10.73
2023-12-21T07:58:37.473Z,10.79
2023-12-21T08:01:05.325Z,10.72
2023-12-21T08:03:33.326Z,10.83
2023-12-21T08:06:02.089Z,10.87
2023-12-21T08:08:31.340Z,10.89
2023-12-21T08:10:59.736Z,11.09
2023-12-21T08:13:28.039Z,11.06
2023-12-21T08:15:56.081Z,11.17
2023-12-21T08:18:24.044Z,11.27
2023-12-21T08:20:52.619Z,11.41
2023-12-21T08:23:20.422Z,11.38
2023-12-21T08:25:49.415Z,11.42
2023-12-21T08:28:17.738Z,11.33
2023-12-21T08:30:45.885Z,11.36
2023-12-21T08:33:14.362Z,11.34
2023-12-21T08:35:42.326Z,11.28
2023-12-21T08:38:10.368Z,11.27
2023-12-21T08:40:38.390Z,11.17
2023-12-21T08:43:06.490Z,11.13
2023-12-21T08:45:34.487Z,11.07
2023-12-21T08:48:02.494Z,11.03
2023-12-21T08:50:35.991Z,10.98
2023-12-21T08:53:07.222Z,10.79
2023-12-21T08:55:35.333Z,10.61
2023-12-21T08:58:05.751Z,10.61
2023-12-21T09:00:34.019Z,10.58
2023-12-21T09:03:04.905Z,10.52
2023-12-21T09:05:33.246Z,10.41
2023-12-21T09:08:04.609Z,10.44
2023-12-21T09:10:35.048Z,10.37
2023-12-21T09:13:15.512Z,10.29
2023-12-21T09:15:50.159Z,10.30
2023-12-21T09:18:22.900Z,10.29
2023-12-21T09:20:52.851Z,10.27
2023-12-21T09:23:26.439Z,10.35
2023-12-21T09:25:55.834Z,10.37
2023-12-21T09:28:24.040Z,10.35
2023-12-21T09:30:52.143Z,10.37
2023-12-21T09:33:20.402Z,10.39
2023-12-21T09:35:55.687Z,10.39
2023-12-21T09:38:26.261Z,10.33
2023-12-21T09:40:55.483Z,10.38
2023-12-21T09:43:25.532Z,10.36
2023-12-21T09:45:55.915Z,10.31
2023-12-21T09:48:44.505Z,10.28
2023-12-21T09:51:15.701Z,10.31
2023-12-21T09:53:45.505Z,10.38
2023-12-21T09:56:17.857Z,10.46
2023-12-21T09:58:47.042Z,10.45
2023-12-21T10:01:15.262Z,10.40
2023-12-21T10:03:46.391Z,10.38
2023-12-21T10:06:15.003Z,10.35
2023-12-21T10:08:45.778Z,10.40
2023-12-21T10:11:14.828Z,10.28
2023-12-21T10:13:49.000Z,10.24
2023-12-21T10:16:18.281Z,10.25
2023-12-21T10:18:46.926Z,10.23
2023-12-21T10:21:15.208Z,10.19
2023-12-21T10:23:44.657Z,10.22
2023-12-21T10:26:12.593Z,10.20
2023-12-21T10:28:41.202Z,10.15
2023-12-21T10:31:10.932Z,10.09
2023-12-21T10:33:39.104Z,10.07
2023-12-21T10:36:08.113Z,10.08
2023-12-21T10:38:36.660Z,10.09
2023-12-21T10:41:07.309Z,10.13
2023-12-21T10:43:36.703Z,10.16
2023-12-21T10:46:04.983Z,10.20
2023-12-21T10:48:39.743Z,10.28
2023-12-21T10:51:08.087Z,10.36
2023-12-21T10:53:38.230Z,10.33
2023-12-21T10:56:07.727Z,10.31
2023-12-21T10:58:37.563Z,10.31
2023-12-21T11:01:07.884Z,10.30
2023-12-21T11:03:38.823Z,10.18
2023-12-21T11:06:06.978Z,10.24
2023-12-21T11:08:37.872Z,10.18
2023-12-21T11:11:06.799Z,10.17
2023-12-21T11:13:36.064Z,10.19
2023-12-21T11:16:04.394Z,10.20
2023-12-21T11:18:33.260Z,10.25
2023-12-21T11:21:02.412Z,10.31
2023-12-21T11:23:31.207Z,10.27
2023-12-21T11:26:00.442Z,10.24
2023-12-21T11:28:34.469Z,10.21
2023-12-21T11:31:20.167Z,10.21
2023-12-21T11:33:48.387Z,10.20
2023-12-21T11:36:27.947Z,10.16
2023-12-21T11:38:58.219Z,10.13
2023-12-21T11:41:26.495Z,10.12
2023-12-21T11:44:02.281Z,10.07
2023-12-21T11:46:34.257Z,10.09
2023-12-21T11:49:06.152Z,10.11
2023-12-21T11:51:38.608Z,10.10
2023-12-21T11:54:07.243Z,10.11
2023-12-21T11:56:38.058Z,10.15
2023-12-21T11:59:08.199Z,10.14
2023-12-21T12:01:36.413Z,10.15
2023-12-21T12:04:07.076Z,10.13
2023-12-21T12:06:35.973Z,10.13
2023-12-21T12:09:04.314Z,10.09
2023-12-21T12:11:32.941Z,10.06
2023-12-21T12:14:00.941Z,10.03
2023-12-21T12:16:33.816Z,10.03
2023-12-21T12:19:01.967Z,10.05
2023-12-21T12:21:31.688Z,10.07
2023-12-21T12:24:00.172Z,10.06
2023-12-21T12:26:30.701Z,10.09
2023-12-21T12:28:58.903Z,10.02
2023-12-21T12:31:27.194Z,10.09
2023-12-21T12:33:55.527Z,10.08
2023-12-21T12:36:23.432Z,10.05
2023-12-21T12:38:52.247Z,10.04
2023-12-21T12:41:26.188Z,9.95
2023-12-21T12:43:54.704Z,9.87
2023-12-21T12:46:26.380Z,9.90
2023-12-21T12:48:54.566Z,9.94
2023-12-21T12:51:24.080Z,9.92
2023-12-21T12:53:53.438Z,9.90
2023-12-21T12:56:21.411Z,9.91
2023-12-21T12:58:58.132Z,9.89
2023-12-21T13:01:29.180Z,9.92
2023-12-21T13:04:00.488Z,9.93
2023-12-21T13:06:30.416Z,9.93
2023-12-21T13:08:59.732Z,9.91
2023-12-21T13:11:28.612Z,9.87
2023-12-21T13:13:57.898Z,9.85
2023-12-21T13:16:26.089Z,9.86
2023-12-21T13:18:54.611Z,9.86
2023-12-21T13:21:23.129Z,9.84
2023-12-21T13:23:51.703Z,9.84
2023-12-21T13:26:20.244Z,9.77
2023-12-21T13:28:48.450Z,9.74
2023-12-21T13:31:17.841Z,9.77
2023-12-21T13:33:46.153Z,9.74
2023-12-21T13:36:14.610Z,9.73
2023-12-21T13:38:43.054Z,9.68
2023-12-21T13:41:11.269Z,9.68
2023-12-21T13:43:43.903Z,9.68
2023-12-21T13:46:15.032Z,9.65
2023-12-21T13:48:43.222Z,9.62
2023-12-21T13:51:10.849Z,9.62
2023-12-21T13:53:38.879Z,9.57
2023-12-21T13:56:07.557Z,9.59
2023-12-21T13:58:38.667Z,9.59
2023-12-21T14:01:07.958Z,9.58
2023-12-21T14:03:36.210Z,9.59
2023-12-21T14:06:05.604Z,9.55
2023-12-21T14:08:33.628Z,9.52
2023-12-21T14:11:01.648Z,9.53
2023-12-21T14:13:29.964Z,9.54
2023-12-21T14:15:59.676Z,9.54
2023-12-21T14:18:27.971Z,9.48
2023-12-21T14:20:56.100Z,9.47
2023-12-21T14:23:24.341Z,9.47
2023-12-21T14:25:52.703Z,9.42
2023-12-21T14:28:21.205Z,9.39
2023-12-21T14:30:52.181Z,9.38
2023-12-21T14:33:20.155Z,9.33
2023-12-21T14:35:49.710Z,9.27
2023-12-21T14:38:18.313Z,9.19
2023-12-21T14:40:46.844Z,9.17
2023-12-21T14:43:15.089Z,9.15
2023-12-21T14:45:43.140Z,9.15
2023-12-21T14:48:11.526Z,9.20
2023-12-21T14:50:43.993Z,9.20
2023-12-21T14:53:12.225Z,9.07
2023-12-21T14:55:42.540Z,9.10
2023-12-21T14:58:11.017Z,9.07
2023-12-21T15:00:49.293Z,9.00
2023-12-21T15:03:17.650Z,8.97
2023-12-21T15:05:46.262Z,8.94
2023-12-21T15:08:16.441Z,8.94
2023-12-21T15:10:44.503Z,8.92
2023-12-21T15:13:14.194Z,8.92
2023-12-21T15:15:44.359Z,8.89
2023-12-21T15:18:12.865Z,8.90
2023-12-21T15:20:42.304Z,8.86
2023-12-21T15:23:10.385Z,8.83
2023-12-21T15:25:38.126Z,8.86
2023-12-21T15:28:06.467Z,8.88
2023-12-21T15:30:37.598Z,8.88
2023-12-21T15:33:05.475Z,8.89
2023-12-21T15:35:33.829Z,8.92
2023-12-21T15:38:04.629Z,8.91
2023-12-21T15:40:32.648Z,8.95
2023-12-21T15:43:00.151Z,8.94
2023-12-21T15:45:28.714Z,8.99
2023-12-21T15:47:56.912Z,8.96
2023-12-21T15:50:25.561Z,8.95
2023-12-21T15:52:54.546Z,8.93
2023-12-21T15:55:23.609Z,8.93
2023-12-21T15:57:51.765Z,8.91
2023-12-21T16:00:20.356Z,8.86
2023-12-21T16:02:50.849Z,8.81
2023-12-21T16:05:19.618Z,8.74
2023-12-21T16:07:48.061Z,8.72
2023-12-21T16:10:16.503Z,8.72
2023-12-21T16:12:46.588Z,8.68
2023-12-21T16:15:14.795Z,8.67
2023-12-21T16:17:42.577Z,8.67
2023-12-21T16:20:11.203Z,8.71
2023-12-21T16:22:39.574Z,8.65
2023-12-21T16:25:07.812Z,8.65
2023-12-21T16:27:39.904Z,8.67
2023-12-21T16:30:08.947Z,8.71
2023-12-21T16:32:38.241Z,8.71
2023-12-21T16:35:06.602Z,8.71
2023-12-21T16:37:34.987Z,8.74
2023-12-21T16:40:05.805Z,8.72
2023-12-21T16:42:37.579Z,8.70
2023-12-21T16:45:07.734Z,8.63
2023-12-21T16:47:35.917Z,8.66
2023-12-21T16:50:04.299Z,8.65
2023-12-21T16:52:33.054Z,8.62
2023-12-21T16:55:02.629Z,8.54
2023-12-21T16:57:30.904Z,8.53
2023-12-21T17:00:00.468Z,8.57
2023-12-21T17:02:28.865Z,8.58
2023-12-21T17:04:59.015Z,8.55
2023-12-21T17:07:27.633Z,8.66
2023-12-21T17:09:58.514Z,8.66
2023-12-21T17:12:26.536Z,8.66
2023-12-21T17:14:54.893Z,8.65
2023-12-21T17:17:26.911Z,8.69
2023-12-21T17:19:54.701Z,8.67
2023-12-21T17:22:22.879Z,8.70
2023-12-21T17:24:50.759Z,8.68
2023-12-21T17:27:19.125Z,8.70
2023-12-21T17:29:47.586Z,8.68
2023-12-21T17:32:15.934Z,8.68
2023-12-21T17:34:45.360Z,8.71
2023-12-21T17:37:13.808Z,8.68
2023-12-21T17:39:44.990Z,8.64
2023-12-21T17:42:12.998Z,8.65
2023-12-21T17:44:41.872Z,8.64
2023-12-21T17:47:10.042Z,8.56
2023-12-21T17:49:38.184Z,8.56
2023-12-21T17:52:06.194Z,8.53
2023-12-21T17:54:38.833Z,8.49
2023-12-21T17:57:06.625Z,8.52
2023-12-21T17:59:34.877Z,8.49
2023-12-21T18:02:07.451Z,8.37
2023-12-21T18:04:35.783Z,8.21
2023-12-21T18:07:03.807Z,8.06
2023-12-21T18:09:32.015Z,7.98
2023-12-21T18:12:00.448Z,7.90
2023-12-21T18:14:28.544Z,7.79
2023-12-21T18:16:56.635Z,7.61
2023-12-21T18:19:24.862Z,7.56
2023-12-21T18:21:53.162Z,7.58
2023-12-21T18:24:22.836Z,7.59
2023-12-21T18:29:37.780Z,7.60
2023-12-21T18:32:06.715Z,7.65
2023-12-21T18:34:34.597Z,7.74
2023-12-21T18:37:05.782Z,7.82
2023-12-21T18:39:34.066Z,7.80
2023-12-21T18:42:02.631Z,7.85
2023-12-21T18:44:31.449Z,7.82
2023-12-21T18:46:59.708Z,7.82
2023-12-21T18:49:28.100Z,7.80
2023-12-21T18:51:56.816Z,7.77
2023-12-21T18:54:25.384Z,7.72
2023-12-21T18:56:53.651Z,7.67
2023-12-21T18:59:21.893Z,7.58
2023-12-21T19:01:49.953Z,7.49
2023-12-21T19:04:18.536Z,7.40
2023-12-21T19:06:46.950Z,7.33
2023-12-21T19:09:14.834Z,7.32
2023-12-21T19:11:43.096Z,7.34
2023-12-21T19:14:11.234Z,7.33
2023-12-21T19:16:45.939Z,7.30
2023-12-21T19:19:14.473Z,7.31
2023-12-21T19:21:47.217Z,7.22
2023-12-21T19:24:15.390Z,7.28
2023-12-21T19:26:43.066Z,7.39
2023-12-21T19:29:11.427Z,7.48
2023-12-21T19:31:39.880Z,7.56
2023-12-21T19:34:08.122Z,7.60
2023-12-21T19:36:36.365Z,7.62
2023-12-21T19:39:06.318Z,7.62
2023-12-21T19:41:34.543Z,7.59
2023-12-21T19:44:05.345Z,7.68
2023-12-21T19:46:34.017Z,7.61
2023-12-21T19:49:04.685Z,7.55
2023-12-21T19:51:34.670Z,7.57
2023-12-21T19:54:06.422Z,7.63
2023-12-21T19:56:36.008Z,7.69
2023-12-21T19:59:05.175Z,7.80
2023-12-21T20:01:35.732Z,7.84
2023-12-21T20:04:03.599Z,7.83
2023-12-21T20:06:31.992Z,7.88
2023-12-21T20:09:00.714Z,7.81
2023-12-21T20:11:30.037Z,7.67
2023-12-21T20:13:59.990Z,7.61
2023-12-21T20:16:28.495Z,7.54
2023-12-21T20:18:56.897Z,7.54
2023-12-21T20:21:28.740Z,7.48
2023-12-21T20:23:56.909Z,7.46
2023-12-21T20:26:25.423Z,7.43
2023-12-21T20:28:53.549Z,7.35
2023-12-21T20:31:21.660Z,7.22
2023-12-21T20:33:52.604Z,7.15
2023-12-21T20:36:20.835Z,7.16
2023-12-21T20:38:48.961Z,7.13
2023-12-21T20:41:17.612Z,7.01
2023-12-21T20:43:48.599Z,6.90
2023-12-21T20:46:17.008Z,6.91
2023-12-21T20:48:44.740Z,6.86
2023-12-21T20:51:13.138Z,6.68
2023-12-21T20:53:42.019Z,6.57
2023-12-21T20:56:10.574Z,6.55
2023-12-21T20:58:39.048Z,6.60
2023-12-21T21:01:07.202Z,6.59
2023-12-21T21:03:38.871Z,6.67
2023-12-21T21:06:07.568Z,6.79
2023-12-21T21:08:36.098Z,6.81
2023-12-21T21:11:05.148Z,6.89
2023-12-21T21:13:33.467Z,6.92
2023-12-21T21:16:01.770Z,6.90
2023-12-21T21:18:30.358Z,6.95
2023-12-21T21:20:59.374Z,7.02
2023-12-21T21:23:30.110Z,7.06
2023-12-21T21:25:59.184Z,7.01
2023-12-21T21:28:30.433Z,6.89
2023-12-21T21:31:01.448Z,6.89
2023-12-21T21:33:30.322Z,6.81
2023-12-21T21:36:00.492Z,6.76
2023-12-21T21:38:28.877Z,6.73
2023-12-21T21:41:01.117Z,6.67
2023-12-21T21:43:33.051Z,6.69
2023-12-21T21:46:07.604Z,6.64
2023-12-21T21:48:38.844Z,6.67
2023-12-21T21:51:17.368Z,6.63
2023-12-21T21:53:46.461Z,6.61
2023-12-21T21:56:14.772Z,6.64
2023-12-21T21:58:43.060Z,6.58
2023-12-21T22:01:11.307Z,6.58
2023-12-21T22:03:39.586Z,6.55
2023-12-21T22:06:08.208Z,6.53
2023-12-21T22:08:39.377Z,6.47
2023-12-21T22:11:08.596Z,6.45
2023-12-21T22:13:39.690Z,6.48
2023-12-21T22:16:08.133Z,6.52
2023-12-21T22:18:36.984Z,6.48
2023-12-21T22:21:05.487Z,6.47
2023-12-21T22:23:33.407Z,6.47
2023-12-21T22:26:03.525Z,6.41
2023-12-21T22:28:32.196Z,6.41
2023-12-21T22:31:00.667Z,6.33
2023-12-21T22:33:29.107Z,6.32
2023-12-21T22:36:00.380Z,6.37
2023-12-21T22:38:31.590Z,6.39
2023-12-21T22:40:59.650Z,6.36
2023-12-21T22:43:35.088Z,6.40
2023-12-21T22:46:10.745Z,6.44
2023-12-21T22:48:39.271Z,6.48
2023-12-21T22:51:08.104Z,6.52
2023-12-21T22:53:36.047Z,6.49
2023-12-21T22:56:04.048Z,6.48
2023-12-21T22:58:32.604Z,6.52
2023-12-21T23:01:01.090Z,6.61
2023-12-21T23:03:29.285Z,6.68
2023-12-21T23:05:57.649Z,6.77
2023-12-21T23:08:26.001Z,6.82
2023-12-21T23:10:54.701Z,6.85
2023-12-21T23:13:23.393Z,6.85
2023-12-21T23:15:51.299Z,6.88
2023-12-21T23:18:20.541Z,6.88
2023-12-21T23:20:48.807Z,6.90
2023-12-21T23:23:17.360Z,6.90
2023-12-21T23:25:45.776Z,6.91
2023-12-21T23:28:13.995Z,6.89
2023-12-21T23:30:42.430Z,6.88
2023-12-21T23:33:11.748Z,6.87
2023-12-21T23:35:39.839Z,6.86
2023-12-21T23:38:08.113Z,6.84
2023-12-21T23:40:36.156Z,6.85
2023-12-21T23:43:04.137Z,6.89
2023-12-21T23:45:32.466Z,6.88
2023-12-21T23:48:00.550Z,6.87
2023-12-21T23:50:28.855Z,6.89
2023-12-21T23:52:57.089Z,6.78
2023-12-21T23:55:25.482Z,6.67
2023-12-21T23:57:53.551Z,6.78
